createdAt,value
2022-10-23T00:00:01.578Z,1002.51
2022-10-23T00:00:11.664Z,1002.52
2022-10-23T00:00:21.776Z,1002.49
2022-10-23T00:00:31.852Z,1002.50
2022-10-23T00:00:41.669Z,1002.49
2022-10-23T00:00:51.626Z,1002.49
2022-10-23T00:01:01.568Z,1002.48
2022-10-23T00:01:11.593Z,1002.51
2022-10-23T00:01:21.611Z,1002.50
2022-10-23T00:01:31.568Z,1002.52
2022-10-23T00:01:41.567Z,1002.49
2022-10-23T00:01:51.574Z,1002.54
2022-10-23T00:02:01.678Z,1002.51
2022-10-23T00:02:12.183Z,1002.49
2022-10-23T00:02:22.218Z,1002.50
2022-10-23T00:02:31.665Z,1002.49
2022-10-23T00:02:41.978Z,1002.48
2022-10-23T00:02:51.605Z,1002.50
2022-10-23T00:03:01.650Z,1002.44
2022-10-23T00:03:11.555Z,1002.48
2022-10-23T00:03:21.573Z,1002.46
2022-10-23T00:03:31.572Z,1002.46
2022-10-23T00:03:41.570Z,1002.44
2022-10-23T00:03:51.552Z,1002.46
2022-10-23T00:04:01.565Z,1002.42
2022-10-23T00:04:12.131Z,1002.44
2022-10-23T00:04:22.233Z,1002.40
2022-10-23T00:04:31.571Z,1002.42
2022-10-23T00:04:41.560Z,1002.44
2022-10-23T00:04:51.555Z,1002.41
2022-10-23T00:05:01.560Z,1002.44
2022-10-23T00:05:11.547Z,1002.45
2022-10-23T00:05:21.561Z,1002.43
2022-10-23T00:05:31.564Z,1002.42
2022-10-23T00:05:41.640Z,1002.44
2022-10-23T00:05:51.704Z,1002.41
2022-10-23T00:06:01.559Z,1002.41
2022-10-23T00:06:11.641Z,1002.48
2022-10-23T00:06:21.562Z,1002.45
2022-10-23T00:06:32.132Z,1002.45
2022-10-23T00:06:41.549Z,1002.43
2022-10-23T00:06:51.541Z,1002.41
2022-10-23T00:07:01.567Z,1002.48
2022-10-23T00:07:11.547Z,1002.45
2022-10-23T00:07:21.602Z,1002.43
2022-10-23T00:07:31.554Z,1002.41
2022-10-23T00:07:41.627Z,1002.43
2022-10-23T00:07:51.564Z,1002.42
2022-10-23T00:08:01.577Z,1002.41
2022-10-23T00:08:11.544Z,1002.45
2022-10-23T00:08:21.550Z,1002.42
2022-10-23T00:08:32.138Z,1002.48
2022-10-23T00:08:41.645Z,1002.43
2022-10-23T00:08:51.536Z,1002.43
2022-10-23T00:09:01.540Z,1002.44
2022-10-23T00:09:11.550Z,1002.43
2022-10-23T00:09:21.546Z,1002.39
2022-10-23T00:09:31.544Z,1002.44
2022-10-23T00:09:41.539Z,1002.40
2022-10-23T00:09:51.533Z,1002.40
2022-10-23T00:10:01.536Z,1002.42
2022-10-23T00:10:11.583Z,1002.41
2022-10-23T00:10:21.536Z,1002.42
2022-10-23T00:10:31.531Z,1002.39
2022-10-23T00:10:42.146Z,1002.39
2022-10-23T00:10:51.664Z,1002.43
2022-10-23T00:11:01.523Z,1002.41
2022-10-23T00:11:11.527Z,1002.45
2022-10-23T00:11:21.565Z,1002.44
2022-10-23T00:11:31.526Z,1002.45
2022-10-23T00:11:41.530Z,1002.46
2022-10-23T00:11:51.524Z,1002.44
2022-10-23T00:12:02.226Z,1002.43
2022-10-23T00:12:11.515Z,1002.43
2022-10-23T00:12:21.535Z,1002.47
2022-10-23T00:12:31.529Z,1002.44
2022-10-23T00:12:41.806Z,1002.44
2022-10-23T00:12:51.608Z,1002.42
2022-10-23T00:13:01.514Z,1002.39
2022-10-23T00:13:11.543Z,1002.40
2022-10-23T00:13:22.145Z,1002.35
2022-10-23T00:13:31.516Z,1002.44
2022-10-23T00:13:41.514Z,1002.40
2022-10-23T00:13:51.510Z,1002.45
2022-10-23T00:14:01.517Z,1002.41
2022-10-23T00:14:12.134Z,1002.41
2022-10-23T00:14:21.511Z,1002.45
2022-10-23T00:14:31.541Z,1002.42
2022-10-23T00:14:41.524Z,1002.45
2022-10-23T00:14:51.588Z,1002.44
2022-10-23T00:15:02.142Z,1002.45
2022-10-23T00:15:11.505Z,1002.46
2022-10-23T00:15:21.511Z,1002.49
2022-10-23T00:15:31.502Z,1002.45
2022-10-23T00:15:41.581Z,1002.47
2022-10-23T00:16:01.710Z,1002.48
2022-10-23T00:16:11.512Z,1002.47
2022-10-23T00:16:21.557Z,1002.46
2022-10-23T00:16:31.499Z,1002.47
2022-10-23T00:16:41.643Z,1002.48
2022-10-23T00:16:51.530Z,1002.45
2022-10-23T00:17:01.504Z,1002.47
2022-10-23T00:17:11.513Z,1002.44
2022-10-23T00:17:21.498Z,1002.44
2022-10-23T00:17:31.497Z,1002.39
2022-10-23T00:17:41.944Z,1002.43
2022-10-23T00:17:51.533Z,1002.49
2022-10-23T00:18:01.507Z,1002.48
2022-10-23T00:18:11.601Z,1002.43
2022-10-23T00:18:21.492Z,1002.44
2022-10-23T00:18:31.492Z,1002.48
2022-10-23T00:18:41.695Z,1002.48
2022-10-23T00:18:51.511Z,1002.47
2022-10-23T00:19:01.571Z,1002.46
2022-10-23T00:19:11.487Z,1002.50
2022-10-23T00:19:21.492Z,1002.48
2022-10-23T00:19:31.483Z,1002.52
2022-10-23T00:19:41.513Z,1002.46
2022-10-23T00:19:51.489Z,1002.46
2022-10-23T00:20:01.488Z,1002.48
2022-10-23T00:20:11.515Z,1002.47
2022-10-23T00:20:21.501Z,1002.46
2022-10-23T00:20:31.486Z,1002.45
2022-10-23T00:20:41.522Z,1002.45
2022-10-23T00:20:51.498Z,1002.48
2022-10-23T00:21:02.153Z,1002.52
2022-10-23T00:21:11.680Z,1002.50
2022-10-23T00:21:21.477Z,1002.44
2022-10-23T00:21:31.487Z,1002.46
2022-10-23T00:21:41.505Z,1002.48
2022-10-23T00:21:51.507Z,1002.48
2022-10-23T00:22:01.484Z,1002.49
2022-10-23T00:22:11.476Z,1002.45
2022-10-23T00:22:21.478Z,1002.41
2022-10-23T00:22:31.493Z,1002.42
2022-10-23T00:22:41.492Z,1002.38
2022-10-23T00:22:51.477Z,1002.39
2022-10-23T00:23:01.499Z,1002.34
2022-10-23T00:23:11.530Z,1002.43
2022-10-23T00:23:21.470Z,1002.42
2022-10-23T00:23:31.470Z,1002.41
2022-10-23T00:23:41.548Z,1002.43
2022-10-23T00:23:51.474Z,1002.41
2022-10-23T00:24:01.542Z,1002.44
2022-10-23T00:24:11.489Z,1002.43
2022-10-23T00:24:21.476Z,1002.41
2022-10-23T00:24:31.465Z,1002.46
2022-10-23T00:24:41.488Z,1002.45
2022-10-23T00:24:51.470Z,1002.45
2022-10-23T00:25:01.479Z,1002.48
2022-10-23T00:25:12.159Z,1002.46
2022-10-23T00:25:21.666Z,1002.46
2022-10-23T00:25:31.463Z,1002.46
2022-10-23T00:25:41.473Z,1002.46
2022-10-23T00:25:51.487Z,1002.44
2022-10-23T00:26:01.462Z,1002.47
2022-10-23T00:26:11.454Z,1002.51
2022-10-23T00:26:21.505Z,1002.44
2022-10-23T00:26:31.463Z,1002.46
2022-10-23T00:26:42.222Z,1002.47
2022-10-23T00:26:51.458Z,1002.45
2022-10-23T00:27:01.463Z,1002.43
2022-10-23T00:27:11.542Z,1002.41
2022-10-23T00:27:21.539Z,1002.46
2022-10-23T00:27:31.445Z,1002.43
2022-10-23T00:27:41.807Z,1002.42
2022-10-23T00:27:51.445Z,1002.46
2022-10-23T00:28:01.585Z,1002.45
2022-10-23T00:28:11.463Z,1002.42
2022-10-23T00:28:21.453Z,1002.44
2022-10-23T00:28:31.445Z,1002.48
2022-10-23T00:28:41.461Z,1002.43
2022-10-23T00:28:51.451Z,1002.41
2022-10-23T00:29:01.447Z,1002.42
2022-10-23T00:29:12.144Z,1002.42
2022-10-23T00:29:24.183Z,1002.43
2022-10-23T00:29:31.452Z,1002.42
2022-10-23T00:29:41.529Z,1002.36
2022-10-23T00:29:51.451Z,1002.41
2022-10-23T00:30:01.447Z,1002.42
2022-10-23T00:30:11.478Z,1002.40
2022-10-23T00:30:21.461Z,1002.40
2022-10-23T00:30:31.460Z,1002.42
2022-10-23T00:30:41.443Z,1002.43
2022-10-23T00:30:51.567Z,1002.42
2022-10-23T00:31:01.444Z,1002.44
2022-10-23T00:31:11.432Z,1002.42
2022-10-23T00:31:21.495Z,1002.44
2022-10-23T00:31:31.509Z,1002.45
2022-10-23T00:31:41.436Z,1002.46
2022-10-23T00:31:51.427Z,1002.45
2022-10-23T00:32:01.462Z,1002.47
2022-10-23T00:32:11.435Z,1002.46
2022-10-23T00:32:21.472Z,1002.49
2022-10-23T00:32:41.441Z,1002.46
2022-10-23T00:32:51.498Z,1002.48
2022-10-23T00:33:01.435Z,1002.46
2022-10-23T00:33:11.424Z,1002.42
2022-10-23T00:33:21.440Z,1002.44
2022-10-23T00:33:31.465Z,1002.47
2022-10-23T00:33:41.551Z,1002.44
2022-10-23T00:33:51.434Z,1002.43
2022-10-23T00:34:01.441Z,1002.39
2022-10-23T00:34:12.223Z,1002.45
2022-10-23T00:34:21.440Z,1002.39
2022-10-23T00:34:31.418Z,1002.41
2022-10-23T00:34:41.426Z,1002.39
2022-10-23T00:34:51.438Z,1002.41
2022-10-23T00:35:01.427Z,1002.39
2022-10-23T00:35:11.414Z,1002.37
2022-10-23T00:35:21.505Z,1002.35
2022-10-23T00:35:31.495Z,1002.39
2022-10-23T00:35:42.174Z,1002.30
2022-10-23T00:35:51.426Z,1002.34
2022-10-23T00:36:01.420Z,1002.30
2022-10-23T00:36:11.430Z,1002.30
2022-10-23T00:36:21.456Z,1002.27
2022-10-23T00:36:32.150Z,1002.31
2022-10-23T00:36:42.149Z,1002.35
2022-10-23T00:36:52.159Z,1002.36
2022-10-23T00:37:01.439Z,1002.34
2022-10-23T00:37:11.427Z,1002.35
2022-10-23T00:37:21.419Z,1002.31
2022-10-23T00:37:31.409Z,1002.34
2022-10-23T00:37:41.758Z,1002.30
2022-10-23T00:37:51.532Z,1002.36
2022-10-23T00:38:01.451Z,1002.35
2022-10-23T00:38:11.402Z,1002.38
2022-10-23T00:38:21.410Z,1002.40
2022-10-23T00:38:31.426Z,1002.40
2022-10-23T00:38:41.407Z,1002.36
2022-10-23T00:38:51.411Z,1002.37
2022-10-23T00:39:01.431Z,1002.36
2022-10-23T00:39:11.404Z,1002.38
2022-10-23T00:39:21.422Z,1002.31
2022-10-23T00:39:31.419Z,1002.33
2022-10-23T00:39:41.412Z,1002.36
2022-10-23T00:39:52.139Z,1002.35
2022-10-23T00:40:01.770Z,1002.36
2022-10-23T00:40:11.407Z,1002.35
2022-10-23T00:40:21.419Z,1002.33
2022-10-23T00:40:31.521Z,1002.35
2022-10-23T00:40:41.443Z,1002.34
2022-10-23T00:40:51.405Z,1002.32
2022-10-23T00:41:01.416Z,1002.30
2022-10-23T00:41:11.392Z,1002.32
2022-10-23T00:41:21.395Z,1002.36
2022-10-23T00:41:31.411Z,1002.31
2022-10-23T00:41:41.395Z,1002.33
2022-10-23T00:41:51.699Z,1002.34
2022-10-23T00:42:01.546Z,1002.30
2022-10-23T00:42:11.402Z,1002.34
2022-10-23T00:42:21.388Z,1002.37
2022-10-23T00:42:31.434Z,1002.32
2022-10-23T00:42:41.669Z,1002.33
2022-10-23T00:42:51.404Z,1002.35
2022-10-23T00:43:01.389Z,1002.30
2022-10-23T00:43:11.405Z,1002.31
2022-10-23T00:43:21.390Z,1002.32
2022-10-23T00:43:31.385Z,1002.32
2022-10-23T00:43:41.389Z,1002.33
2022-10-23T00:43:51.416Z,1002.30
2022-10-23T00:44:02.159Z,1002.29
2022-10-23T00:44:11.379Z,1002.31
2022-10-23T00:44:21.374Z,1002.28
2022-10-23T00:44:31.383Z,1002.33
2022-10-23T00:44:42.147Z,1002.33
2022-10-23T00:44:51.387Z,1002.30
2022-10-23T00:45:01.453Z,1002.36
2022-10-23T00:45:11.378Z,1002.35
2022-10-23T00:45:21.371Z,1002.34
2022-10-23T00:45:31.383Z,1002.31
2022-10-23T00:45:41.384Z,1002.35
2022-10-23T00:45:51.384Z,1002.34
2022-10-23T00:46:04.164Z,1002.33
2022-10-23T00:46:11.545Z,1002.34
2022-10-23T00:46:21.364Z,1002.31
2022-10-23T00:46:31.388Z,1002.32
2022-10-23T00:46:41.392Z,1002.30
2022-10-23T00:46:51.371Z,1002.31
2022-10-23T00:47:01.454Z,1002.31
2022-10-23T00:47:11.394Z,1002.32
2022-10-23T00:47:21.374Z,1002.33
2022-10-23T00:47:31.379Z,1002.29
2022-10-23T00:47:41.365Z,1002.33
2022-10-23T00:47:51.394Z,1002.34
2022-10-23T00:48:01.415Z,1002.33
2022-10-23T00:48:11.449Z,1002.34
2022-10-23T00:48:21.367Z,1002.31
2022-10-23T00:48:31.384Z,1002.33
2022-10-23T00:48:41.404Z,1002.32
2022-10-23T00:48:51.372Z,1002.31
2022-10-23T00:49:01.446Z,1002.35
2022-10-23T00:49:21.375Z,1002.34
2022-10-23T00:49:33.543Z,1002.29
2022-10-23T00:49:42.832Z,1002.35
2022-10-23T00:49:51.455Z,1002.32
2022-10-23T00:50:01.374Z,1002.33
2022-10-23T00:50:11.413Z,1002.34
2022-10-23T00:50:21.354Z,1002.33
2022-10-23T00:50:31.371Z,1002.34
2022-10-23T00:50:41.355Z,1002.33
2022-10-23T00:50:51.351Z,1002.35
2022-10-23T00:51:01.424Z,1002.32
2022-10-23T00:51:11.363Z,1002.34
2022-10-23T00:51:21.354Z,1002.35
2022-10-23T00:51:32.157Z,1002.31
2022-10-23T00:51:41.361Z,1002.27
2022-10-23T00:51:51.364Z,1002.31
2022-10-23T00:52:01.359Z,1002.26
2022-10-23T00:52:11.425Z,1002.27
2022-10-23T00:52:21.411Z,1002.26
2022-10-23T00:52:31.342Z,1002.27
2022-10-23T00:52:41.701Z,1002.33
2022-10-23T00:52:51.352Z,1002.28
2022-10-23T00:53:01.347Z,1002.26
2022-10-23T00:53:11.345Z,1002.30
2022-10-23T00:53:21.334Z,1002.34
2022-10-23T00:53:31.346Z,1002.34
2022-10-23T00:53:41.339Z,1002.28
2022-10-23T00:54:01.090Z,1002.30
2022-10-23T00:54:22.785Z,1002.36
2022-10-23T00:54:25.211Z,1002.33
2022-10-23T00:54:26.642Z,1002.35
2022-10-23T00:54:31.345Z,1002.36
2022-10-23T00:54:41.341Z,1002.34
2022-10-23T00:54:51.336Z,1002.33
2022-10-23T00:55:02.167Z,1002.31
2022-10-23T00:55:11.340Z,1002.34
2022-10-23T00:55:21.348Z,1002.36
2022-10-23T00:55:31.335Z,1002.34
2022-10-23T00:55:41.352Z,1002.31
2022-10-23T00:55:51.330Z,1002.38
2022-10-23T00:56:01.329Z,1002.36
2022-10-23T00:56:11.339Z,1002.32
2022-10-23T00:56:21.325Z,1002.35
2022-10-23T00:56:31.418Z,1002.34
2022-10-23T00:56:41.352Z,1002.38
2022-10-23T00:56:51.336Z,1002.37
2022-10-23T00:57:01.319Z,1002.36
2022-10-23T00:57:12.314Z,1002.35
2022-10-23T00:57:21.677Z,1002.34
2022-10-23T00:57:31.335Z,1002.37
2022-10-23T00:57:41.317Z,1002.37
2022-10-23T00:57:51.334Z,1002.37
2022-10-23T00:58:01.327Z,1002.39
2022-10-23T00:58:11.330Z,1002.38
2022-10-23T00:58:21.336Z,1002.36
2022-10-23T00:58:31.343Z,1002.35
2022-10-23T00:58:41.326Z,1002.37
2022-10-23T00:58:54.173Z,1002.39
2022-10-23T00:59:01.314Z,1002.38
2022-10-23T00:59:11.315Z,1002.35
2022-10-23T00:59:21.339Z,1002.37
2022-10-23T00:59:31.387Z,1002.37
2022-10-23T00:59:41.370Z,1002.34
2022-10-23T00:59:51.314Z,1002.38
2022-10-23T01:00:01.310Z,1002.38
2022-10-23T01:00:11.316Z,1002.41
2022-10-23T01:00:21.436Z,1002.38
2022-10-23T01:00:31.337Z,1002.39
2022-10-23T01:00:41.320Z,1002.37
2022-10-23T01:00:51.317Z,1002.38
2022-10-23T01:01:01.407Z,1002.34
2022-10-23T01:01:11.439Z,1002.40
2022-10-23T01:01:21.543Z,1002.39
2022-10-23T01:01:31.485Z,1002.36
2022-10-23T01:01:41.549Z,1002.37
2022-10-23T01:01:51.479Z,1002.41
2022-10-23T01:02:01.558Z,1002.36
2022-10-23T01:02:11.575Z,1002.35
2022-10-23T01:02:21.432Z,1002.44
2022-10-23T01:02:31.436Z,1002.39
2022-10-23T01:02:42.596Z,1002.38
2022-10-23T01:02:51.306Z,1002.39
2022-10-23T01:03:01.312Z,1002.36
2022-10-23T01:03:11.306Z,1002.39
2022-10-23T01:03:21.294Z,1002.41
2022-10-23T01:03:31.342Z,1002.40
2022-10-23T01:03:41.303Z,1002.34
2022-10-23T01:03:51.327Z,1002.38
2022-10-23T01:04:01.335Z,1002.36
2022-10-23T01:04:11.303Z,1002.36
2022-10-23T01:04:21.396Z,1002.37
2022-10-23T01:04:31.322Z,1002.41
2022-10-23T01:04:41.296Z,1002.37
2022-10-23T01:04:51.438Z,1002.38
2022-10-23T01:05:01.287Z,1002.40
2022-10-23T01:05:11.314Z,1002.39
2022-10-23T01:05:21.330Z,1002.38
2022-10-23T01:05:31.289Z,1002.39
2022-10-23T01:05:41.364Z,1002.34
2022-10-23T01:05:51.307Z,1002.38
2022-10-23T01:06:01.289Z,1002.35
2022-10-23T01:06:11.294Z,1002.38
2022-10-23T01:06:21.304Z,1002.36
2022-10-23T01:06:31.281Z,1002.39
2022-10-23T01:06:41.278Z,1002.38
2022-10-23T01:06:51.302Z,1002.38
2022-10-23T01:07:01.436Z,1002.39
2022-10-23T01:07:11.323Z,1002.39
2022-10-23T01:07:21.302Z,1002.38
2022-10-23T01:07:31.329Z,1002.33
2022-10-23T01:07:41.658Z,1002.33
2022-10-23T01:07:51.303Z,1002.33
2022-10-23T01:08:01.343Z,1002.36
2022-10-23T01:08:11.277Z,1002.32
2022-10-23T01:08:21.269Z,1002.29
2022-10-23T01:08:31.289Z,1002.34
2022-10-23T01:08:42.211Z,1002.33
2022-10-23T01:08:51.275Z,1002.32
2022-10-23T01:09:01.275Z,1002.36
2022-10-23T01:09:11.290Z,1002.34
2022-10-23T01:09:21.348Z,1002.34
2022-10-23T01:09:31.280Z,1002.36
2022-10-23T01:09:41.268Z,1002.41
2022-10-23T01:09:51.270Z,1002.33
2022-10-23T01:10:01.270Z,1002.38
2022-10-23T01:10:11.270Z,1002.39
2022-10-23T01:10:21.268Z,1002.35
2022-10-23T01:10:31.389Z,1002.37
2022-10-23T01:10:41.282Z,1002.38
2022-10-23T01:10:51.280Z,1002.36
2022-10-23T01:11:02.178Z,1002.37
2022-10-23T01:11:11.282Z,1002.38
2022-10-23T01:11:21.330Z,1002.33
2022-10-23T01:11:31.263Z,1002.42
2022-10-23T01:11:41.255Z,1002.41
2022-10-23T01:11:51.261Z,1002.41
2022-10-23T01:12:01.269Z,1002.38
2022-10-23T01:12:11.290Z,1002.38
2022-10-23T01:12:21.264Z,1002.40
2022-10-23T01:12:31.266Z,1002.37
2022-10-23T01:12:41.264Z,1002.39
2022-10-23T01:12:51.334Z,1002.42
2022-10-23T01:13:01.265Z,1002.40
2022-10-23T01:13:11.337Z,1002.38
2022-10-23T01:13:21.248Z,1002.40
2022-10-23T01:13:31.270Z,1002.35
2022-10-23T01:13:41.260Z,1002.37
2022-10-23T01:13:51.278Z,1002.39
2022-10-23T01:14:01.282Z,1002.37
2022-10-23T01:14:11.249Z,1002.40
2022-10-23T01:14:21.246Z,1002.41
2022-10-23T01:14:31.272Z,1002.42
2022-10-23T01:14:41.249Z,1002.40
2022-10-23T01:14:51.250Z,1002.41
2022-10-23T01:15:01.247Z,1002.43
2022-10-23T01:15:12.177Z,1002.45
2022-10-23T01:15:21.249Z,1002.35
2022-10-23T01:15:31.250Z,1002.37
2022-10-23T01:15:41.243Z,1002.39
2022-10-23T01:15:51.256Z,1002.39
2022-10-23T01:16:01.249Z,1002.39
2022-10-23T01:16:11.247Z,1002.36
2022-10-23T01:16:21.253Z,1002.36
2022-10-23T01:16:31.260Z,1002.38
2022-10-23T01:16:41.242Z,1002.38
2022-10-23T01:16:51.354Z,1002.37
2022-10-23T01:17:01.285Z,1002.41
2022-10-23T01:17:11.239Z,1002.39
2022-10-23T01:17:21.237Z,1002.39
2022-10-23T01:17:31.236Z,1002.42
2022-10-23T01:17:44.465Z,1002.40
2022-10-23T01:17:51.538Z,1002.40
2022-10-23T01:18:01.299Z,1002.38
2022-10-23T01:18:11.237Z,1002.36
2022-10-23T01:18:21.231Z,1002.33
2022-10-23T01:18:32.197Z,1002.34
2022-10-23T01:18:41.241Z,1002.33
2022-10-23T01:18:51.246Z,1002.36
2022-10-23T01:19:01.242Z,1002.33
2022-10-23T01:19:11.248Z,1002.30
2022-10-23T01:19:21.281Z,1002.31
2022-10-23T01:19:31.232Z,1002.30
2022-10-23T01:19:41.237Z,1002.36
2022-10-23T01:19:52.176Z,1002.34
2022-10-23T01:20:01.235Z,1002.31
2022-10-23T01:20:12.177Z,1002.30
2022-10-23T01:20:21.236Z,1002.36
2022-10-23T01:20:31.225Z,1002.38
2022-10-23T01:20:41.220Z,1002.31
2022-10-23T01:20:51.243Z,1002.35
2022-10-23T01:21:01.342Z,1002.39
2022-10-23T01:21:11.223Z,1002.38
2022-10-23T01:21:21.226Z,1002.34
2022-10-23T01:21:31.286Z,1002.40
2022-10-23T01:21:41.226Z,1002.38
2022-10-23T01:21:51.227Z,1002.40
2022-10-23T01:22:02.172Z,1002.31
2022-10-23T01:22:11.347Z,1002.35
2022-10-23T01:22:21.338Z,1002.35
2022-10-23T01:22:32.160Z,1002.36
2022-10-23T01:22:41.403Z,1002.37
2022-10-23T01:22:51.259Z,1002.35
2022-10-23T01:23:01.226Z,1002.37
2022-10-23T01:23:11.710Z,1002.34
2022-10-23T01:23:21.208Z,1002.37
2022-10-23T01:23:31.257Z,1002.38
2022-10-23T01:23:41.204Z,1002.37
2022-10-23T01:23:51.234Z,1002.41
2022-10-23T01:24:01.208Z,1002.37
2022-10-23T01:24:11.207Z,1002.42
2022-10-23T01:24:21.209Z,1002.36
2022-10-23T01:24:31.211Z,1002.35
2022-10-23T01:24:41.212Z,1002.34
2022-10-23T01:24:51.210Z,1002.38
2022-10-23T01:25:01.213Z,1002.41
2022-10-23T01:25:11.199Z,1002.40
2022-10-23T01:25:21.233Z,1002.41
2022-10-23T01:25:32.247Z,1002.45
2022-10-23T01:25:41.199Z,1002.33
2022-10-23T01:25:51.220Z,1002.36
2022-10-23T01:26:01.214Z,1002.35
2022-10-23T01:26:11.204Z,1002.39
2022-10-23T01:26:21.332Z,1002.40
2022-10-23T01:26:31.192Z,1002.39
2022-10-23T01:26:41.197Z,1002.34
2022-10-23T01:26:51.289Z,1002.36
2022-10-23T01:27:01.193Z,1002.34
2022-10-23T01:27:11.304Z,1002.34
2022-10-23T01:27:21.195Z,1002.33
2022-10-23T01:27:31.231Z,1002.36
2022-10-23T01:27:41.211Z,1002.36
2022-10-23T01:27:51.199Z,1002.34
2022-10-23T01:28:01.192Z,1002.32
2022-10-23T01:28:14.166Z,1002.35
2022-10-23T01:28:22.163Z,1002.35
2022-10-23T01:28:31.191Z,1002.36
2022-10-23T01:28:41.338Z,1002.31
2022-10-23T01:28:51.195Z,1002.32
2022-10-23T01:29:01.187Z,1002.33
2022-10-23T01:29:11.192Z,1002.36
2022-10-23T01:29:22.170Z,1002.35
2022-10-23T01:29:31.199Z,1002.34
2022-10-23T01:29:41.205Z,1002.33
2022-10-23T01:29:51.176Z,1002.36
2022-10-23T01:30:01.182Z,1002.34
2022-10-23T01:30:11.182Z,1002.38
2022-10-23T01:30:21.186Z,1002.39
2022-10-23T01:30:31.313Z,1002.37
2022-10-23T01:30:51.176Z,1002.39
2022-10-23T01:31:01.186Z,1002.41
2022-10-23T01:31:11.216Z,1002.42
2022-10-23T01:31:21.214Z,1002.40
2022-10-23T01:31:32.184Z,1002.39
2022-10-23T01:31:41.196Z,1002.37
2022-10-23T01:31:51.244Z,1002.37
2022-10-23T01:32:01.177Z,1002.38
2022-10-23T01:32:11.190Z,1002.39
2022-10-23T01:32:21.193Z,1002.41
2022-10-23T01:32:31.186Z,1002.35
2022-10-23T01:32:41.521Z,1002.35
2022-10-23T01:32:51.164Z,1002.40
2022-10-23T01:33:01.182Z,1002.41
2022-10-23T01:33:11.166Z,1002.38
2022-10-23T01:33:21.178Z,1002.37
2022-10-23T01:33:31.238Z,1002.44
2022-10-23T01:33:41.172Z,1002.39
2022-10-23T01:33:58.263Z,1002.41
2022-10-23T01:34:01.237Z,1002.37
2022-10-23T01:34:11.230Z,1002.41
2022-10-23T01:34:21.183Z,1002.36
2022-10-23T01:34:31.668Z,1002.35
2022-10-23T01:34:41.174Z,1002.41
2022-10-23T01:34:51.163Z,1002.36
2022-10-23T01:35:01.177Z,1002.37
2022-10-23T01:35:11.163Z,1002.38
2022-10-23T01:35:21.179Z,1002.34
2022-10-23T01:35:31.246Z,1002.33
2022-10-23T01:35:41.169Z,1002.32
2022-10-23T01:35:51.174Z,1002.29
2022-10-23T01:36:01.204Z,1002.28
2022-10-23T01:36:11.161Z,1002.33
2022-10-23T01:36:21.172Z,1002.31
2022-10-23T01:36:31.150Z,1002.33
2022-10-23T01:36:41.168Z,1002.29
2022-10-23T01:36:51.204Z,1002.36
2022-10-23T01:37:01.157Z,1002.27
2022-10-23T01:37:11.161Z,1002.31
2022-10-23T01:37:21.174Z,1002.34
2022-10-23T01:37:31.152Z,1002.33
2022-10-23T01:37:41.152Z,1002.31
2022-10-23T01:37:51.197Z,1002.33
2022-10-23T01:38:01.673Z,1002.30
2022-10-23T01:38:11.669Z,1002.30
2022-10-23T01:38:21.166Z,1002.30
2022-10-23T01:38:31.149Z,1002.32
2022-10-23T01:38:41.262Z,1002.31
2022-10-23T01:38:51.331Z,1002.26
2022-10-23T01:39:01.214Z,1002.32
2022-10-23T01:39:11.143Z,1002.30
2022-10-23T01:39:21.154Z,1002.32
2022-10-23T01:39:31.136Z,1002.27
2022-10-23T01:39:41.157Z,1002.30
2022-10-23T01:39:51.139Z,1002.29
2022-10-23T01:40:01.149Z,1002.31
2022-10-23T01:40:11.195Z,1002.30
2022-10-23T01:40:21.137Z,1002.31
2022-10-23T01:40:31.141Z,1002.31
2022-10-23T01:40:41.166Z,1002.32
2022-10-23T01:40:51.139Z,1002.30
2022-10-23T01:41:01.139Z,1002.32
2022-10-23T01:41:11.152Z,1002.28
2022-10-23T01:41:21.133Z,1002.28
2022-10-23T01:41:31.157Z,1002.30
2022-10-23T01:41:41.151Z,1002.31
2022-10-23T01:41:51.216Z,1002.32
2022-10-23T01:42:01.143Z,1002.31
2022-10-23T01:42:11.179Z,1002.28
2022-10-23T01:42:21.255Z,1002.34
2022-10-23T01:42:31.141Z,1002.31
2022-10-23T01:42:41.461Z,1002.35
2022-10-23T01:42:51.125Z,1002.35
2022-10-23T01:43:01.153Z,1002.32
2022-10-23T01:43:11.119Z,1002.32
2022-10-23T01:43:21.131Z,1002.33
2022-10-23T01:43:31.714Z,1002.33
2022-10-23T01:43:41.136Z,1002.35
2022-10-23T01:43:51.168Z,1002.32
2022-10-23T01:44:01.120Z,1002.36
2022-10-23T01:44:11.130Z,1002.32
2022-10-23T01:44:21.173Z,1002.32
2022-10-23T01:44:31.788Z,1002.33
2022-10-23T01:44:41.239Z,1002.35
2022-10-23T01:44:51.130Z,1002.29
2022-10-23T01:45:01.115Z,1002.35
2022-10-23T01:45:11.118Z,1002.35
2022-10-23T01:45:21.129Z,1002.33
2022-10-23T01:45:31.111Z,1002.36
2022-10-23T01:45:41.116Z,1002.32
2022-10-23T01:45:51.141Z,1002.36
2022-10-23T01:46:01.118Z,1002.37
2022-10-23T01:46:11.135Z,1002.34
2022-10-23T01:46:21.145Z,1002.36
2022-10-23T01:46:31.115Z,1002.37
2022-10-23T01:46:41.125Z,1002.30
2022-10-23T01:46:51.274Z,1002.35
2022-10-23T01:47:01.219Z,1002.34
2022-10-23T01:47:11.185Z,1002.38
2022-10-23T01:47:31.112Z,1002.34
2022-10-23T01:47:41.511Z,1002.37
2022-10-23T01:47:51.113Z,1002.35
2022-10-23T01:48:01.108Z,1002.38
2022-10-23T01:48:11.118Z,1002.43
2022-10-23T01:48:21.149Z,1002.37
2022-10-23T01:48:31.103Z,1002.39
2022-10-23T01:48:41.138Z,1002.38
2022-10-23T01:48:51.111Z,1002.38
2022-10-23T01:49:01.235Z,1002.38
2022-10-23T01:49:17.713Z,1002.34
2022-10-23T01:49:21.107Z,1002.37
2022-10-23T01:49:31.109Z,1002.38
2022-10-23T01:49:41.162Z,1002.36
2022-10-23T01:49:51.108Z,1002.36
2022-10-23T01:50:01.126Z,1002.39
2022-10-23T01:50:11.128Z,1002.39
2022-10-23T01:50:21.106Z,1002.34
2022-10-23T01:50:31.138Z,1002.38
2022-10-23T01:50:41.717Z,1002.38
2022-10-23T01:50:51.166Z,1002.38
2022-10-23T01:51:01.109Z,1002.40
2022-10-23T01:51:11.088Z,1002.38
2022-10-23T01:51:21.114Z,1002.37
2022-10-23T01:51:31.111Z,1002.39
2022-10-23T01:51:41.132Z,1002.40
2022-10-23T01:51:51.083Z,1002.34
2022-10-23T01:52:01.109Z,1002.39
2022-10-23T01:52:11.115Z,1002.40
2022-10-23T01:52:21.086Z,1002.39
2022-10-23T01:52:31.091Z,1002.36
2022-10-23T01:52:41.155Z,1002.39
2022-10-23T01:52:51.081Z,1002.41
2022-10-23T01:53:01.676Z,1002.36
2022-10-23T01:53:11.086Z,1002.44
2022-10-23T01:53:21.094Z,1002.39
2022-10-23T01:53:31.124Z,1002.44
2022-10-23T01:53:41.078Z,1002.38
2022-10-23T01:53:51.095Z,1002.43
2022-10-23T01:54:01.092Z,1002.38
2022-10-23T01:54:11.154Z,1002.41
2022-10-23T01:54:21.088Z,1002.42
2022-10-23T01:54:31.074Z,1002.39
2022-10-23T01:54:41.719Z,1002.37
2022-10-23T01:54:53.664Z,1002.37
2022-10-23T01:55:01.075Z,1002.37
2022-10-23T01:55:11.070Z,1002.39
2022-10-23T01:55:21.091Z,1002.39
2022-10-23T01:55:31.188Z,1002.41
2022-10-23T01:55:51.083Z,1002.43
2022-10-23T01:56:01.784Z,1002.43
2022-10-23T01:56:11.070Z,1002.38
2022-10-23T01:56:21.110Z,1002.39
2022-10-23T01:56:31.073Z,1002.44
2022-10-23T01:56:41.098Z,1002.43
2022-10-23T01:56:51.182Z,1002.42
2022-10-23T01:57:01.072Z,1002.38
2022-10-23T01:57:11.084Z,1002.47
2022-10-23T01:57:21.084Z,1002.40
2022-10-23T01:57:31.684Z,1002.42
2022-10-23T01:57:41.361Z,1002.46
2022-10-23T01:57:51.272Z,1002.47
2022-10-23T01:58:01.061Z,1002.43
2022-10-23T01:58:11.074Z,1002.44
2022-10-23T01:58:21.069Z,1002.44
2022-10-23T01:58:31.106Z,1002.42
2022-10-23T01:58:41.805Z,1002.41
2022-10-23T01:58:51.126Z,1002.42
2022-10-23T01:59:01.675Z,1002.43
2022-10-23T01:59:11.084Z,1002.43
2022-10-23T01:59:21.354Z,1002.41
2022-10-23T01:59:31.059Z,1002.42
2022-10-23T01:59:41.064Z,1002.42
2022-10-23T01:59:51.053Z,1002.42
2022-10-23T02:00:01.080Z,1002.41
2022-10-23T02:00:11.676Z,1002.42
2022-10-23T02:00:21.100Z,1002.39
2022-10-23T02:00:31.680Z,1002.41
2022-10-23T02:00:41.055Z,1002.41
2022-10-23T02:00:51.688Z,1002.42
2022-10-23T02:01:01.093Z,1002.41
2022-10-23T02:01:11.158Z,1002.37
2022-10-23T02:01:21.198Z,1002.38
2022-10-23T02:01:31.199Z,1002.37
2022-10-23T02:01:41.230Z,1002.36
2022-10-23T02:01:51.201Z,1002.38